Langley, OK (74350)

1:12 PM CDT on August 29, 2014 (GMT -0500)
Hwy85x4470rd | Change Station
CLOSE
Current Station
Personal Weather Station
Location: Vinita, OK
Elevation: 768 ft
Nearby Weather Stations

Elev 768 ft 36.53 °N, 95.04 °W | Updated 1 minute ago

Partly Cloudy
Partly Cloudy
84.0 °F
Feels Like 88 °F
N
8.9
Wind Variable Wind from SW

Today
High -- | Low -- °F
--% Chance of Precip.
Yesterday
High -- | Low -- °F
Precip. -- in
6:49 AM 7:52 PM
Waxing Crescent, 15% visible
Pressure 29.93 in
Visibility 10.0 miles
Clouds Scattered Clouds 2700 ft
Heat Index 88 °F
Dew Point 69 °F
Humidity 60%
Rainfall 0.00 in
Snow Depth Not available.
UV 8 out of 12
Pollen 7.30 out of 12
Air Quality Not available.
Flu Activity Not available.
METAR KGMJ 291755Z AUTO 20008G14KT 10SM SCT027 29/20 A2993 RMK AO2

More Conditions Fewer Conditions

Pressure 29.93 in
Visibility 10.0 miles
Clouds Scattered Clouds 2700 ft
Heat Index 88 °F
Dew Point 69 °F
Humidity 60%
Rainfall 0.00 in
Snow Depth Not available.
UV 8 out of 12
Pollen 7.30 out of 12
Air Quality Not available.
Flu Activity Not available.
METAR KGMJ 291755Z AUTO 20008G14KT 10SM SCT027 29/20 A2993 RMK AO2

More Conditions Fewer Conditions

Nowcast | as of 12:25 PM CDT on August 29, 2014

At 12:25 PM...weather radars indicated scattered showers and thunderstorms across southeast Oklahoma...west central and northwest Arkansas. Movement was to the north northeast around 20 miles an hour. Through 2:30 PM...widely scattered to scattered showers and thunderstorms will continue to track across southeast Oklahoma.,,,West central and northwest Arkansas. Additional isolated development will remain possible across northeast Oklahoma this afternoon brief gusty winds and small hail will be possible with the strongest storms. Otherwise...rainfall amounts will mostly remain less than 2 tenths of an inch...however a brief downpour that accompanies the stronger thunderstorms may produce locally higher amounts.

×

10-Day Weather Forecast

Almanac

Astronomy

Aug. 29, 2014 Rise Set
Actual Time 6:49 AM CDT 7:52 PM CDT
Civil Twilight 6:22 AM CDT 8:18 PM CDT
Nautical Twilight 5:51 AM CDT 8:50 PM CDT
Astronomical Twilight 5:18 AM CDT 9:22 PM CDT
Moon 10:31 AM CDT 9:58 PM CDT
Length of Visible Light 13h 56m
Length of Day
13h 03m
Tomorrow will be 2m 11s shorter.
Waxing Crescent, 15% of the Moon is Illuminated
Today
Waxing Crescent
Sep 2
First Quarter
Sep 8
Full
Sep 15
Last Quarter
Sep 24
New

Today's Extremes

State Highs State Lows

Community

WunderPhotos

Upload Photos

1,748,309 photos uploaded!

Nearby

Snow Depth

Station Depth Elevation
No new snow has been reported.

Earthquake Activity

City Distance Mag. Time & Date
No recent earthquake activity has been reported nearby.
Minimum magnitude displayed is 2.5.

Coastal Water Temperatures

Place Temperature
No Stations Reporting

Nearby Weather Stations